createdAt,value
2023-04-15T00:01:37.229Z,2.93
2023-04-15T00:04:04.737Z,3.70
2023-04-15T00:06:31.344Z,3.65
2023-04-15T00:08:57.904Z,3.30
2023-04-15T00:11:24.460Z,4.13
2023-04-15T00:13:51.173Z,3.83
2023-04-15T00:16:17.722Z,2.50
2023-04-15T00:18:44.267Z,5.47
2023-04-15T00:21:10.637Z,3.08
2023-04-15T00:23:36.988Z,3.47
2023-04-15T00:26:03.382Z,3.20
2023-04-15T00:28:30.957Z,5.05
2023-04-15T00:30:57.554Z,5.75
2023-04-15T00:33:23.995Z,3.35
2023-04-15T00:35:50.890Z,4.40
2023-04-15T00:38:17.726Z,3.00
2023-04-15T00:40:44.207Z,2.50
2023-04-15T00:43:10.609Z,3.97
2023-04-15T00:45:37.345Z,5.65
2023-04-15T00:48:05.380Z,3.08
2023-04-15T00:50:31.800Z,3.60
2023-04-15T00:52:58.158Z,4.70
2023-04-15T00:55:24.506Z,5.07
2023-04-15T00:57:51.049Z,3.67
2023-04-15T01:00:18.095Z,5.32
2023-04-15T01:02:44.750Z,4.83
2023-04-15T01:05:11.643Z,3.50
2023-04-15T01:07:38.148Z,6.55
2023-04-15T01:10:05.018Z,4.93
2023-04-15T01:12:33.058Z,3.97
2023-04-15T01:15:00.029Z,4.17
2023-04-15T01:17:26.432Z,3.78
2023-04-15T01:19:52.987Z,3.92
2023-04-15T01:22:19.654Z,3.88
2023-04-15T01:24:55.286Z,4.50
2023-04-15T01:27:22.525Z,4.27
2023-04-15T01:29:48.894Z,4.68
2023-04-15T01:32:15.573Z,3.45
2023-04-15T01:34:42.215Z,4.97
2023-04-15T01:37:08.569Z,3.95
2023-04-15T01:39:35.362Z,4.50
2023-04-15T01:42:01.702Z,4.40
2023-04-15T01:44:28.048Z,5.03
2023-04-15T01:46:54.459Z,3.53
2023-04-15T01:49:20.836Z,3.83
2023-04-15T01:51:47.208Z,7.23
2023-04-15T01:54:13.567Z,4.72
2023-04-15T01:56:39.956Z,3.70
2023-04-15T01:59:06.434Z,4.50
2023-04-15T02:01:32.882Z,3.75
2023-04-15T02:03:59.403Z,3.37
2023-04-15T02:06:25.833Z,4.28
2023-04-15T02:08:52.207Z,2.63
2023-04-15T02:11:18.533Z,4.32
2023-04-15T02:13:45.049Z,4.70
2023-04-15T02:16:18.957Z,4.53
2023-04-15T02:18:46.920Z,3.28
2023-04-15T02:21:13.633Z,4.85
2023-04-15T02:23:40.046Z,3.35
2023-04-15T02:26:07.101Z,3.63
2023-04-15T02:28:33.472Z,4.70
2023-04-15T02:30:59.843Z,4.22
2023-04-15T02:33:26.263Z,5.18
2023-04-15T02:35:53.190Z,3.97
2023-04-15T02:38:19.604Z,6.10
2023-04-15T02:40:46.574Z,3.90
2023-04-15T02:43:12.952Z,4.10
2023-04-15T02:45:39.370Z,3.97
2023-04-15T02:48:06.724Z,4.03
2023-04-15T02:50:33.391Z,3.80
2023-04-15T02:53:01.564Z,5.43
2023-04-15T02:55:28.742Z,4.35
2023-04-15T02:57:55.533Z,3.97
2023-04-15T03:00:22.375Z,3.45
2023-04-15T03:02:52.301Z,3.22
2023-04-15T03:05:18.933Z,3.43
2023-04-15T03:07:45.445Z,2.85
2023-04-15T03:10:11.893Z,4.82
2023-04-15T03:12:38.304Z,4.63
2023-04-15T03:15:05.100Z,3.60
2023-04-15T03:17:31.479Z,5.00
2023-04-15T03:19:57.908Z,3.35
2023-04-15T03:22:25.082Z,4.30
2023-04-15T03:24:51.502Z,4.50
2023-04-15T03:27:17.860Z,3.30
2023-04-15T03:29:44.208Z,5.53
2023-04-15T03:32:10.646Z,4.45
2023-04-15T03:34:37.020Z,5.18
2023-04-15T03:37:03.422Z,4.40
2023-04-15T03:39:29.765Z,4.50
2023-04-15T03:41:56.434Z,5.70
2023-04-15T03:44:22.782Z,3.38
2023-04-15T03:46:49.314Z,5.00
2023-04-15T03:49:16.234Z,3.75
2023-04-15T03:51:42.639Z,4.05
2023-04-15T03:54:08.969Z,3.23
2023-04-15T03:56:35.411Z,2.28
2023-04-15T03:59:02.068Z,5.15
2023-04-15T04:01:28.783Z,4.30
2023-04-15T04:03:55.279Z,3.28
2023-04-15T04:06:21.884Z,5.97
2023-04-15T04:08:48.250Z,5.78
2023-04-15T04:11:14.684Z,3.10
2023-04-15T04:13:41.436Z,4.60
2023-04-15T04:16:08.337Z,14.43
2023-04-15T04:18:34.846Z,9.03
2023-04-15T04:21:01.497Z,8.32
2023-04-15T04:23:28.023Z,7.97
2023-04-15T04:25:54.475Z,6.75
2023-04-15T04:28:20.830Z,5.53
2023-04-15T04:30:47.265Z,5.03
2023-04-15T04:33:13.660Z,3.65
2023-04-15T04:35:40.068Z,4.22
2023-04-15T04:38:06.403Z,6.82
2023-04-15T04:40:32.808Z,5.93
2023-04-15T04:42:59.257Z,4.87
2023-04-15T04:45:25.756Z,3.45
2023-04-15T04:47:52.215Z,4.47
2023-04-15T04:50:18.667Z,3.17
2023-04-15T04:52:45.021Z,4.80
2023-04-15T04:55:11.563Z,4.77
2023-04-15T04:57:39.475Z,3.88
2023-04-15T05:00:08.536Z,6.07
2023-04-15T05:02:35.997Z,6.50
2023-04-15T05:05:02.479Z,6.70
2023-04-15T05:07:28.885Z,7.03
2023-04-15T05:09:55.236Z,7.20
2023-04-15T05:12:21.652Z,6.30
2023-04-15T05:14:48.005Z,5.82
2023-04-15T05:17:14.481Z,5.00
2023-04-15T05:19:40.860Z,4.70
2023-04-15T05:22:07.824Z,5.00
2023-04-15T05:24:34.199Z,5.85
2023-04-15T05:27:02.051Z,4.85
2023-04-15T05:29:28.412Z,4.05
2023-04-15T05:31:54.808Z,3.50
2023-04-15T05:34:21.632Z,5.95
2023-04-15T05:36:48.024Z,5.03
2023-04-15T05:39:14.363Z,5.55
2023-04-15T05:41:40.967Z,9.40
2023-04-15T05:44:07.320Z,6.80
2023-04-15T05:46:33.700Z,7.22
2023-04-15T05:49:00.627Z,8.73
2023-04-15T05:51:27.756Z,10.43
2023-04-15T05:53:54.100Z,11.23
2023-04-15T05:56:20.684Z,12.80
2023-04-15T05:58:47.115Z,9.88
2023-04-15T06:01:13.517Z,9.55
2023-04-15T06:03:40.321Z,14.02
2023-04-15T06:06:07.641Z,13.63
2023-04-15T06:08:34.031Z,10.97
2023-04-15T06:11:00.460Z,10.77
2023-04-15T06:13:27.079Z,13.10
2023-04-15T06:15:54.051Z,12.77
2023-04-15T06:18:20.569Z,11.20
2023-04-15T06:20:46.949Z,10.90
2023-04-15T06:23:13.294Z,10.95
2023-04-15T06:25:39.654Z,9.00
2023-04-15T06:28:06.274Z,8.93
2023-04-15T06:30:32.754Z,8.65
2023-04-15T06:32:59.177Z,8.83
2023-04-15T06:35:25.956Z,9.48
2023-04-15T06:37:52.555Z,7.15
2023-04-15T06:40:18.898Z,6.30
2023-04-15T06:42:45.513Z,6.72
2023-04-15T06:45:11.978Z,6.03
2023-04-15T06:47:38.378Z,6.90
2023-04-15T06:50:05.143Z,7.65
2023-04-15T06:52:31.637Z,6.80
2023-04-15T06:54:59.414Z,5.90
2023-04-15T06:57:25.897Z,5.47
2023-04-15T06:59:54.543Z,4.55
2023-04-15T07:02:21.453Z,4.50
2023-04-15T07:04:47.854Z,4.85
2023-04-15T07:07:15.266Z,6.10
2023-04-15T07:09:41.709Z,5.17
2023-04-15T07:12:08.110Z,4.03
2023-04-15T07:14:34.454Z,4.32
2023-04-15T07:17:00.907Z,4.47
2023-04-15T07:19:27.273Z,4.78
2023-04-15T07:21:53.665Z,4.70
2023-04-15T07:24:20.592Z,4.88
2023-04-15T07:26:47.131Z,4.30
2023-04-15T07:29:13.492Z,4.85
2023-04-15T07:31:41.608Z,4.38
2023-04-15T07:34:08.409Z,3.97
2023-04-15T07:36:35.269Z,4.45
2023-04-15T07:39:03.656Z,6.53
2023-04-15T07:41:30.962Z,9.57
2023-04-15T07:43:57.378Z,4.75
2023-04-15T07:46:24.737Z,5.30
2023-04-15T07:48:51.125Z,4.97
2023-04-15T07:51:17.776Z,5.90
2023-04-15T07:53:44.539Z,6.20
2023-04-15T07:56:11.335Z,4.70
2023-04-15T07:58:37.678Z,4.27
2023-04-15T08:01:05.019Z,5.55
2023-04-15T08:03:32.068Z,5.10
2023-04-15T08:05:58.509Z,4.75
2023-04-15T08:08:25.711Z,6.15
2023-04-15T08:10:52.822Z,5.00
2023-04-15T08:13:19.511Z,6.60
2023-04-15T08:15:46.040Z,6.38
2023-04-15T08:18:12.525Z,4.78
2023-04-15T08:20:38.918Z,6.85
2023-04-15T08:23:05.297Z,6.03
2023-04-15T08:25:31.721Z,5.78
2023-04-15T08:27:58.192Z,7.18
2023-04-15T08:30:24.599Z,7.05
2023-04-15T08:32:51.256Z,5.82
2023-04-15T08:35:18.141Z,5.73
2023-04-15T08:37:44.515Z,5.72
2023-04-15T08:40:11.430Z,5.07
2023-04-15T08:42:44.929Z,5.65
2023-04-15T08:45:11.844Z,5.47
2023-04-15T08:47:41.736Z,4.33
2023-04-15T08:50:10.576Z,4.85
2023-04-15T08:52:37.077Z,4.47
2023-04-15T08:55:04.802Z,4.93
2023-04-15T08:57:33.408Z,4.97
2023-04-15T09:00:04.791Z,4.87
2023-04-15T09:02:32.192Z,4.75
2023-04-15T09:04:58.624Z,4.10
2023-04-15T09:07:25.038Z,7.38
2023-04-15T09:09:52.252Z,3.95
2023-04-15T09:12:18.661Z,5.17
2023-04-15T09:14:47.210Z,4.35
2023-04-15T09:17:13.913Z,3.03
2023-04-15T09:19:40.247Z,4.05
2023-04-15T09:22:06.804Z,3.50
2023-04-15T09:24:39.102Z,3.83
2023-04-15T09:27:06.263Z,3.90
2023-04-15T09:29:32.748Z,6.47
2023-04-15T09:32:13.462Z,4.82
2023-04-15T09:34:39.873Z,4.15
2023-04-15T09:37:07.807Z,3.77
2023-04-15T09:39:51.942Z,3.78
2023-04-15T09:42:24.352Z,3.72
2023-04-15T09:44:52.724Z,3.38
2023-04-15T09:47:29.571Z,4.68
2023-04-15T09:49:57.553Z,4.47
2023-04-15T09:52:24.370Z,3.15
2023-04-15T09:54:54.376Z,4.25
2023-04-15T09:57:21.781Z,4.55
2023-04-15T09:59:48.202Z,6.32
2023-04-15T10:02:15.758Z,2.90
2023-04-15T10:04:42.474Z,4.50
2023-04-15T10:07:09.702Z,3.45
2023-04-15T10:09:37.940Z,3.50
2023-04-15T10:12:05.226Z,4.15
2023-04-15T10:14:35.003Z,2.10
2023-04-15T10:17:02.864Z,3.00
2023-04-15T10:19:31.884Z,5.65
2023-04-15T10:21:59.518Z,2.50
2023-04-15T10:24:27.821Z,4.20
2023-04-15T10:26:55.366Z,3.73
2023-04-15T10:29:23.617Z,4.78
2023-04-15T10:31:50.963Z,4.55
2023-04-15T10:34:18.678Z,4.90
2023-04-15T10:36:46.982Z,2.90
2023-04-15T10:39:38.084Z,5.63
2023-04-15T10:42:19.048Z,3.40
2023-04-15T10:44:51.437Z,3.55
2023-04-15T10:47:21.319Z,4.28
2023-04-15T10:49:57.007Z,3.17
2023-04-15T10:52:26.044Z,4.00
2023-04-15T10:55:10.897Z,2.38
2023-04-15T10:57:41.496Z,6.55
2023-04-15T11:00:16.338Z,3.22
2023-04-15T11:02:55.651Z,3.95
2023-04-15T11:05:43.449Z,4.13
2023-04-15T11:08:13.581Z,3.28
2023-04-15T11:10:39.882Z,3.28
2023-04-15T11:13:17.032Z,2.22
2023-04-15T11:15:45.592Z,2.35
2023-04-15T11:18:20.163Z,3.50
2023-04-15T11:20:48.829Z,2.78
2023-04-15T11:23:16.045Z,5.05
2023-04-15T11:25:43.300Z,3.03
2023-04-15T11:28:11.929Z,3.60
2023-04-15T11:30:40.162Z,2.87
2023-04-15T11:33:12.178Z,4.22
2023-04-15T11:35:40.935Z,2.10
2023-04-15T11:38:13.649Z,2.40
2023-04-15T11:40:40.903Z,2.17
2023-04-15T11:43:11.406Z,2.63
2023-04-15T11:45:47.516Z,1.80
2023-04-15T11:48:14.600Z,1.23
2023-04-15T11:50:41.550Z,1.70
2023-04-15T11:53:10.406Z,1.30
2023-04-15T11:55:47.244Z,1.47
2023-04-15T11:58:22.424Z,1.27
2023-04-15T12:00:50.367Z,2.42
2023-04-15T12:03:24.104Z,1.52
2023-04-15T12:06:10.297Z,1.52
2023-04-15T12:08:55.520Z,1.30
2023-04-15T12:11:31.901Z,0.98
2023-04-15T12:14:09.633Z,1.20
2023-04-15T12:16:47.851Z,1.88
2023-04-15T12:19:18.146Z,1.45
2023-04-15T12:21:47.703Z,2.20
2023-04-15T12:24:14.495Z,1.42
2023-04-15T12:26:45.822Z,1.42
2023-04-15T12:29:13.786Z,2.05
2023-04-15T12:32:03.966Z,2.22
2023-04-15T12:34:39.012Z,1.70
2023-04-15T12:37:07.735Z,2.58
2023-04-15T12:39:42.399Z,2.22
2023-04-15T12:42:09.786Z,1.73
2023-04-15T12:44:36.993Z,2.63
2023-04-15T12:47:04.025Z,2.63
2023-04-15T12:49:32.523Z,2.60
2023-04-15T12:52:00.595Z,2.03
2023-04-15T12:54:27.933Z,2.13
2023-04-15T12:56:55.423Z,1.60
2023-04-15T12:59:23.734Z,2.73
2023-04-15T13:01:50.817Z,1.50
2023-04-15T13:04:17.762Z,2.08
2023-04-15T13:06:44.378Z,2.40
2023-04-15T13:09:10.776Z,1.55
2023-04-15T13:11:37.155Z,1.33
2023-04-15T13:14:08.452Z,2.30
2023-04-15T13:16:35.559Z,4.43
2023-04-15T13:19:03.594Z,2.88
2023-04-15T13:21:32.167Z,4.03
2023-04-15T13:23:58.579Z,1.93
2023-04-15T13:26:25.005Z,2.20
2023-04-15T13:28:51.371Z,2.83
2023-04-15T13:31:17.756Z,5.10
2023-04-15T13:33:44.150Z,2.60
2023-04-15T13:36:10.565Z,4.13
2023-04-15T13:38:36.967Z,4.43
2023-04-15T13:41:03.775Z,2.72
2023-04-15T13:43:30.515Z,2.63
2023-04-15T13:45:56.913Z,3.13
2023-04-15T13:48:23.273Z,2.43
2023-04-15T13:50:50.428Z,2.17
2023-04-15T13:53:16.777Z,3.55
2023-04-15T13:55:43.232Z,2.17
2023-04-15T13:58:09.975Z,2.38
2023-04-15T14:00:36.611Z,2.77
2023-04-15T14:03:03.471Z,1.90
2023-04-15T14:05:29.985Z,3.40
2023-04-15T14:07:56.318Z,1.98
2023-04-15T14:10:22.703Z,2.40
2023-04-15T14:12:49.087Z,3.17
2023-04-15T14:15:15.644Z,2.95
2023-04-15T14:17:42.494Z,4.50
2023-04-15T14:20:09.556Z,4.35
2023-04-15T14:22:36.041Z,3.85
2023-04-15T14:25:02.709Z,5.40
2023-04-15T14:27:29.158Z,5.75
2023-04-15T14:29:55.637Z,4.90
2023-04-15T14:32:22.011Z,4.45
2023-04-15T14:34:48.391Z,4.45
2023-04-15T14:37:14.780Z,4.90
2023-04-15T14:39:41.185Z,4.93
2023-04-15T14:42:07.617Z,5.43
2023-04-15T14:44:34.082Z,5.13
2023-04-15T14:47:00.746Z,5.78
2023-04-15T14:49:27.242Z,4.90
2023-04-15T14:51:53.613Z,5.63
2023-04-15T14:54:21.906Z,7.53
2023-04-15T14:56:48.765Z,5.50
2023-04-15T14:59:15.296Z,6.05
2023-04-15T15:01:41.742Z,6.27
2023-04-15T15:04:10.166Z,6.88
2023-04-15T15:06:36.618Z,6.22
2023-04-15T15:09:03.289Z,8.38
2023-04-15T15:11:30.328Z,7.40
2023-04-15T15:13:57.041Z,7.03
2023-04-15T15:16:23.527Z,6.88
2023-04-15T15:18:51.126Z,7.18
2023-04-15T15:21:18.209Z,7.10
2023-04-15T15:23:44.904Z,7.32
2023-04-15T15:26:12.337Z,7.03
2023-04-15T15:28:38.748Z,6.45
2023-04-15T15:31:05.529Z,5.43
2023-04-15T15:33:32.696Z,5.80
2023-04-15T15:35:59.390Z,4.90
2023-04-15T15:38:26.246Z,4.73
2023-04-15T15:40:53.674Z,5.60
2023-04-15T15:43:20.148Z,5.30
2023-04-15T15:45:46.511Z,5.80
2023-04-15T15:48:12.872Z,5.22
2023-04-15T15:50:39.383Z,4.93
2023-04-15T15:53:05.745Z,5.30
2023-04-15T15:55:32.161Z,4.13
2023-04-15T15:57:58.508Z,5.80
2023-04-15T16:00:24.906Z,5.07
2023-04-15T16:03:06.821Z,4.30
2023-04-15T16:05:35.063Z,5.00
2023-04-15T16:08:01.785Z,4.20
2023-04-15T16:10:28.215Z,5.00
2023-04-15T16:12:54.647Z,4.60
2023-04-15T16:15:22.441Z,4.63
2023-04-15T16:17:48.870Z,4.32
2023-04-15T16:20:15.357Z,4.05
2023-04-15T16:22:41.788Z,4.47
2023-04-15T16:25:08.557Z,4.20
2023-04-15T16:27:46.465Z,4.40
2023-04-15T16:30:22.098Z,3.95
2023-04-15T16:32:48.726Z,4.30
2023-04-15T16:35:16.747Z,3.80
2023-04-15T16:37:43.121Z,5.10
2023-04-15T16:40:10.024Z,3.80
2023-04-15T16:42:36.809Z,4.93
2023-04-15T16:45:03.312Z,4.40
2023-04-15T16:47:29.690Z,5.38
2023-04-15T16:49:56.187Z,4.68
2023-04-15T16:52:22.586Z,4.87
2023-04-15T16:54:48.942Z,4.38
2023-04-15T16:57:15.408Z,5.00
2023-04-15T16:59:41.755Z,4.75
2023-04-15T17:02:12.278Z,5.32
2023-04-15T17:04:39.746Z,5.33
2023-04-15T17:07:06.653Z,5.00
2023-04-15T17:09:33.015Z,5.97
2023-04-15T17:11:59.435Z,6.13
2023-04-15T17:14:27.825Z,6.47
2023-04-15T17:16:54.242Z,6.13
2023-04-15T17:19:20.644Z,7.22
2023-04-15T17:21:47.196Z,6.63
2023-04-15T17:24:13.588Z,7.03
2023-04-15T17:26:40.060Z,7.15
2023-04-15T17:29:06.685Z,5.77
2023-04-15T17:31:33.475Z,7.35
2023-04-15T17:34:07.701Z,6.57
2023-04-15T17:36:38.397Z,8.63
2023-04-15T17:39:05.062Z,7.28
2023-04-15T17:41:31.590Z,8.17
2023-04-15T17:43:57.952Z,7.78
2023-04-15T17:46:24.396Z,7.63
2023-04-15T17:48:50.764Z,7.95
2023-04-15T17:51:17.754Z,8.13
2023-04-15T17:53:44.106Z,10.40
2023-04-15T17:56:10.611Z,7.43
2023-04-15T17:58:38.997Z,8.43
2023-04-15T18:01:06.202Z,8.68
2023-04-15T18:03:32.689Z,9.07
2023-04-15T18:06:00.637Z,9.77
2023-04-15T18:08:27.925Z,9.32
2023-04-15T18:10:54.291Z,8.98
2023-04-15T18:13:20.656Z,8.25
2023-04-15T18:15:48.554Z,8.93
2023-04-15T18:18:15.123Z,7.43
2023-04-15T18:20:41.492Z,9.02
2023-04-15T18:23:07.923Z,7.72
2023-04-15T18:25:34.316Z,8.05
2023-04-15T18:28:00.706Z,7.78
2023-04-15T18:30:27.038Z,8.20
2023-04-15T18:32:53.425Z,8.57
2023-04-15T18:35:20.597Z,8.32
2023-04-15T18:37:47.129Z,8.23
2023-04-15T18:40:15.745Z,7.22
2023-04-15T18:42:42.108Z,6.30
2023-04-15T18:45:08.833Z,6.68
2023-04-15T18:47:35.310Z,7.75
2023-04-15T18:50:01.711Z,7.72
2023-04-15T18:52:28.130Z,8.32
2023-04-15T18:54:54.483Z,9.33
2023-04-15T18:57:24.984Z,9.90
2023-04-15T18:59:58.804Z,8.10
2023-04-15T19:02:25.367Z,8.15
2023-04-15T19:04:51.790Z,8.50
2023-04-15T19:07:18.426Z,8.60
2023-04-15T19:09:44.847Z,9.00
2023-04-15T19:12:11.278Z,8.63
2023-04-15T19:14:37.691Z,9.88
2023-04-15T19:17:04.095Z,9.13
2023-04-15T19:19:30.474Z,8.83
2023-04-15T19:21:57.511Z,9.50
2023-04-15T19:24:23.912Z,8.80
2023-04-15T19:26:51.057Z,8.10
2023-04-15T19:29:17.652Z,8.95
2023-04-15T19:31:44.061Z,9.10
2023-04-15T19:34:10.691Z,9.15
2023-04-15T19:36:37.051Z,8.18
2023-04-15T19:39:03.675Z,9.90
2023-04-15T19:41:30.177Z,9.02
2023-04-15T19:43:56.672Z,9.57
2023-04-15T19:46:23.392Z,7.78
2023-04-15T19:48:49.895Z,8.70
2023-04-15T19:51:16.311Z,8.25
2023-04-15T19:53:42.713Z,9.00
2023-04-15T19:56:09.064Z,8.30
2023-04-15T19:58:35.424Z,8.18
2023-04-15T20:01:02.267Z,9.00
2023-04-15T20:03:28.848Z,9.63
2023-04-15T20:05:55.331Z,8.65
2023-04-15T20:08:21.767Z,9.00
2023-04-15T20:10:48.122Z,9.38
2023-04-15T20:13:14.503Z,9.23
2023-04-15T20:15:41.089Z,10.88
2023-04-15T20:18:07.481Z,8.48
2023-04-15T20:20:34.569Z,8.77
2023-04-15T20:23:00.949Z,8.90
2023-04-15T20:25:27.508Z,8.85
2023-04-15T20:27:53.891Z,9.93
2023-04-15T20:30:20.618Z,8.85
2023-04-15T20:32:47.010Z,10.67
2023-04-15T20:35:13.420Z,9.18
2023-04-15T20:37:40.438Z,10.57
2023-04-15T20:40:07.457Z,9.50
2023-04-15T20:42:36.709Z,9.77
2023-04-15T20:45:03.329Z,8.90
2023-04-15T20:47:29.997Z,9.85
2023-04-15T20:49:56.630Z,10.98
2023-04-15T20:52:23.069Z,9.90
2023-04-15T20:54:49.988Z,10.50
2023-04-15T20:57:16.796Z,10.03
2023-04-15T20:59:43.182Z,9.75
2023-04-15T21:02:09.709Z,10.10
2023-04-15T21:04:37.885Z,11.13
2023-04-15T21:07:04.287Z,9.27
2023-04-15T21:09:30.776Z,9.13
2023-04-15T21:12:01.564Z,10.65
2023-04-15T21:14:28.571Z,10.48
2023-04-15T21:16:56.381Z,9.25
2023-04-15T21:19:22.751Z,9.60
2023-04-15T21:21:49.101Z,9.00
2023-04-15T21:24:15.468Z,10.95
2023-04-15T21:26:41.825Z,9.45
2023-04-15T21:29:11.108Z,9.00
2023-04-15T21:31:38.192Z,10.30
2023-04-15T21:34:05.154Z,9.40
2023-04-15T21:36:31.813Z,9.68
2023-04-15T21:38:58.182Z,11.05
2023-04-15T21:41:24.653Z,10.38
2023-04-15T21:43:51.107Z,10.55
2023-04-15T21:46:22.060Z,11.47
2023-04-15T21:48:50.472Z,11.35
2023-04-15T21:51:16.844Z,10.38
2023-04-15T21:53:43.259Z,9.32
2023-04-15T21:56:09.899Z,9.90
2023-04-15T21:58:36.601Z,11.43
2023-04-15T22:01:04.377Z,10.52
2023-04-15T22:03:33.728Z,12.75
2023-04-15T22:06:01.287Z,10.30
2023-04-15T22:08:27.740Z,10.98
2023-04-15T22:10:54.568Z,12.93
2023-04-15T22:13:20.988Z,12.98
2023-04-15T22:15:47.455Z,9.80
2023-04-15T22:18:13.807Z,11.73
2023-04-15T22:20:40.416Z,10.48
2023-04-15T22:23:09.814Z,12.23
2023-04-15T22:25:37.167Z,11.88
2023-04-15T22:28:07.216Z,10.25
2023-04-15T22:30:37.453Z,11.35
2023-04-15T22:33:03.940Z,11.77
2023-04-15T22:35:30.320Z,13.00
2023-04-15T22:37:56.696Z,11.73
2023-04-15T22:40:23.105Z,12.15
2023-04-15T22:42:49.464Z,10.90
2023-04-15T22:45:15.927Z,12.85
2023-04-15T22:47:42.319Z,12.47
2023-04-15T22:50:08.978Z,12.30
2023-04-15T22:52:35.365Z,11.52
2023-04-15T22:55:01.782Z,12.77
2023-04-15T22:57:28.603Z,13.25
2023-04-15T22:59:55.242Z,14.03
2023-04-15T23:02:21.849Z,12.23
2023-04-15T23:04:48.484Z,13.93
2023-04-15T23:07:14.893Z,11.43
2023-04-15T23:09:41.286Z,14.55
2023-04-15T23:12:07.698Z,13.93
2023-04-15T23:14:34.095Z,12.00
2023-04-15T23:17:00.441Z,12.15
2023-04-15T23:19:26.793Z,12.40
2023-04-15T23:21:53.416Z,14.00
2023-04-15T23:24:19.769Z,12.97
2023-04-15T23:26:46.191Z,13.38
2023-04-15T23:29:12.573Z,12.38
2023-04-15T23:31:39.029Z,12.82
2023-04-15T23:34:06.379Z,12.77
2023-04-15T23:36:32.756Z,12.80
2023-04-15T23:38:59.089Z,11.63
2023-04-15T23:41:25.437Z,14.32
2023-04-15T23:43:51.783Z,15.27
2023-04-15T23:46:18.182Z,12.65
2023-04-15T23:48:44.569Z,13.90
2023-04-15T23:51:11.007Z,12.43
2023-04-15T23:53:37.389Z,13.77
2023-04-15T23:56:04.020Z,13.52
2023-04-15T23:58:31.021Z,14.05
